Time;durP1;ratioP1;P1;durP2;ratioP2;P2;SDS_P1;SDS_P2;PMS_P1;PMS_P2;Temp;Humidity;BMP_temperature;BMP_pressure;BME280_temperature;BME280_humidity;BME280_pressure;Samples;Min_cycle;Max_cycle;Signal;HPM_P1;HPM_P2
2021/07/24 00:01:29;;;;;;;17.53;15.57;;;20.90;1.00;;;;;;5132542;27;20461;-53
2021/07/24 00:03:55;;;;;;;18.13;16.10;;;21.00;1.00;;;;;;5130235;27;20492;-53
2021/07/24 00:06:20;;;;;;;18.87;16.90;;;20.90;1.00;;;;;;5115087;27;20259;-53
2021/07/24 00:08:46;;;;;;;19.53;17.57;;;20.90;1.00;;;;;;5122006;27;20648;-54
2021/07/24 00:11:12;;;;;;;21.90;16.90;;;20.80;1.00;;;;;;5132616;27;20185;-56
2021/07/24 00:13:39;;;;;;;20.03;15.60;;;20.80;1.00;;;;;;5128618;27;20189;-57
2021/07/24 00:16:06;;;;;;;18.90;16.90;;;20.80;1.00;;;;;;5125354;27;20593;-54
2021/07/24 00:18:32;;;;;;;18.90;15.50;;;20.70;1.00;;;;;;5098203;27;20928;-54
2021/07/24 00:20:58;;;;;;;18.80;16.90;;;20.80;1.00;;;;;;5129295;27;20450;-54
2021/07/24 00:23:24;;;;;;;19.13;17.13;;;20.70;1.00;;;;;;5132011;27;20474;-56
2021/07/24 00:25:49;;;;;;;18.63;16.73;;;20.70;1.00;;;;;;5129844;27;20474;-56
2021/07/24 00:28:15;;;;;;;23.03;16.80;;;20.60;1.00;;;;;;5132705;27;20181;-55
2021/07/24 00:30:42;;;;;;;19.07;17.17;;;20.60;1.00;;;;;;5132288;27;20189;-53
2021/07/24 00:33:09;;;;;;;18.13;16.23;;;20.50;1.00;;;;;;5108698;27;20189;-55
2021/07/24 00:35:35;;;;;;;18.00;16.07;;;20.50;1.00;;;;;;5112703;27;20443;-54
2021/07/24 00:38:01;;;;;;;18.03;15.40;;;20.50;1.00;;;;;;5132651;27;20500;-51
2021/07/24 00:40:29;;;;;;;24.97;18.63;;;20.50;1.00;;;;;;5128963;27;20458;-54
2021/07/24 00:42:57;;;;;;;19.30;16.70;;;20.50;1.00;;;;;;5131247;27;20781;-54
2021/07/24 00:45:25;;;;;;;16.90;15.10;;;20.50;1.00;;;;;;5128795;27;20950;-54
2021/07/24 00:47:54;;;;;;;19.63;16.47;;;20.40;1.00;;;;;;5129574;27;20442;-58
2021/07/24 00:50:20;;;;;;;19.90;15.83;;;20.30;1.00;;;;;;5130687;27;20447;-53
2021/07/24 00:52:46;;;;;;;21.07;15.20;;;20.30;1.00;;;;;;5130190;27;20459;-52
2021/07/24 00:55:13;;;;;;;19.13;17.07;;;20.30;1.00;;;;;;5132379;27;20433;-54
2021/07/24 00:57:41;;;;;;;20.70;16.30;;;20.30;1.00;;;;;;5131154;27;20568;-53
2021/07/24 01:00:08;;;;;;;18.93;16.00;;;20.20;1.00;;;;;;5132820;27;20958;-55
2021/07/24 01:02:34;;;;;;;18.17;16.27;;;20.20;1.00;;;;;;5129431;27;20434;-53
2021/07/24 01:05:02;;;;;;;17.57;15.63;;;20.20;1.00;;;;;;5128813;27;20503;-53
2021/07/24 01:07:29;;;;;;;17.90;16.07;;;20.20;1.00;;;;;;5130817;27;20635;-55
2021/07/24 01:09:57;;;;;;;17.70;16.00;;;20.10;1.00;;;;;;5131438;27;20514;-54
2021/07/24 01:12:23;;;;;;;18.03;16.03;;;20.20;1.00;;;;;;5126458;27;20459;-54
2021/07/24 01:14:49;;;;;;;21.73;16.03;;;20.20;1.00;;;;;;5130447;27;21008;-55
2021/07/24 01:17:15;;;;;;;17.70;15.80;;;20.10;1.00;;;;;;5128749;27;20212;-55
2021/07/24 01:19:40;;;;;;;18.23;15.90;;;20.00;1.00;;;;;;5128698;27;21095;-53
2021/07/24 01:22:06;;;;;;;19.23;17.20;;;19.90;1.00;;;;;;5134372;27;20269;-55
2021/07/24 01:24:31;;;;;;;19.20;17.23;;;20.00;1.00;;;;;;5128973;27;20253;-55
2021/07/24 01:26:57;;;;;;;21.50;16.30;;;20.00;1.00;;;;;;5131244;27;20211;-53
2021/07/24 01:29:24;;;;;;;18.50;16.47;;;19.90;1.00;;;;;;5131656;27;20192;-55
2021/07/24 01:31:49;;;;;;;19.70;17.17;;;19.90;1.00;;;;;;5129695;27;20234;-57
2021/07/24 01:34:15;;;;;;;21.27;17.77;;;19.90;1.00;;;;;;5126022;27;20442;-54
2021/07/24 01:36:41;;;;;;;18.17;15.90;;;19.90;1.00;;;;;;5130563;27;20204;-52
2021/07/24 01:39:09;;;;;;;19.03;16.40;;;19.80;1.00;;;;;;5131549;27;20201;-55
2021/07/24 01:41:34;;;;;;;18.90;16.90;;;19.80;1.00;;;;;;5130485;27;20913;-54
2021/07/24 01:44:00;;;;;;;18.40;16.50;;;19.80;1.00;;;;;;5131296;27;20547;-53
2021/07/24 01:46:25;;;;;;;18.00;16.10;;;19.80;1.00;;;;;;5107111;27;20181;-54
2021/07/24 01:54:29;;;;;;;18.83;16.73;;;19.80;1.00;;;;;;5046746;28;20207;-51
2021/07/24 01:56:56;;;;;;;18.40;15.83;;;19.80;1.00;;;;;;5046143;28;20538;-55
2021/07/24 01:59:28;;;;;;;18.70;16.67;;;19.90;1.00;;;;;;5084635;27;20595;-53
2021/07/24 02:01:55;;;;;;;18.60;16.60;;;19.80;1.00;;;;;;5110047;27;20522;-54
2021/07/24 02:04:23;;;;;;;19.20;16.60;;;19.80;1.00;;;;;;5127565;27;20446;-54
2021/07/24 02:06:49;;;;;;;19.43;17.33;;;19.80;1.00;;;;;;5126731;27;20450;-53
2021/07/24 02:09:16;;;;;;;23.27;18.23;;;19.80;1.00;;;;;;5131066;27;20471;-51
2021/07/24 02:11:44;;;;;;;17.80;16.03;;;19.70;1.00;;;;;;5126308;27;20539;-54
2021/07/24 02:14:09;;;;;;;20.57;18.40;;;19.80;1.00;;;;;;5123988;27;20522;-53
2021/07/24 02:16:36;;;;;;;18.90;16.90;;;19.80;1.00;;;;;;5120076;27;20591;-55
2021/07/24 02:19:02;;;;;;;20.67;17.50;;;19.40;1.00;;;;;;5130419;27;20224;-57
2021/07/24 02:21:31;;;;;;;18.80;16.80;;;19.70;1.00;;;;;;5130388;27;20916;-55
2021/07/24 02:23:57;;;;;;;19.60;17.40;;;19.60;1.00;;;;;;5125582;27;20847;-55
2021/07/24 02:26:22;;;;;;;18.67;16.67;;;19.60;1.00;;;;;;5129959;27;20654;-53
2021/07/24 02:28:48;;;;;;;19.87;17.00;;;19.60;1.00;;;;;;5130739;27;20386;-54
2021/07/24 02:31:14;;;;;;;21.03;17.47;;;19.60;1.00;;;;;;5127964;27;20196;-56
2021/07/24 02:33:39;;;;;;;18.33;16.40;;;19.50;1.00;;;;;;5130504;27;20538;-54
2021/07/24 02:36:05;;;;;;;21.63;19.07;;;19.50;1.00;;;;;;5127698;27;20438;-55
2021/07/24 02:38:30;;;;;;;19.10;15.97;;;19.40;1.00;;;;;;5130978;27;20173;-53
2021/07/24 02:40:56;;;;;;;21.60;18.93;;;19.40;1.00;;;;;;5129870;27;20230;-54
2021/07/24 02:43:22;;;;;;;20.53;16.47;;;19.40;1.00;;;;;;5125180;27;20197;-54
2021/07/24 02:45:47;;;;;;;17.80;15.97;;;19.40;1.00;;;;;;5128827;27;20200;-54
2021/07/24 02:48:13;;;;;;;19.00;17.00;;;19.30;1.00;;;;;;5130951;27;20190;-55
2021/07/24 02:50:38;;;;;;;18.90;16.90;;;19.30;1.00;;;;;;5127717;27;20201;-55
2021/07/24 02:53:04;;;;;;;20.43;17.50;;;19.30;1.00;;;;;;5127725;27;20274;-53
2021/07/24 02:55:30;;;;;;;17.40;15.70;;;19.40;1.00;;;;;;5130370;27;20261;-56
2021/07/24 02:57:55;;;;;;;22.37;19.47;;;19.40;1.00;;;;;;5127721;27;20447;-53
2021/07/24 03:00:21;;;;;;;20.03;18.00;;;19.30;1.00;;;;;;5128215;27;20197;-55
2021/07/24 03:02:47;;;;;;;20.07;17.00;;;19.30;1.00;;;;;;5110111;27;20583;-56
2021/07/24 03:05:13;;;;;;;20.20;16.50;;;19.40;1.00;;;;;;5126021;27;20264;-52
2021/07/24 03:07:38;;;;;;;18.10;16.03;;;19.40;1.00;;;;;;5128928;27;20525;-54
2021/07/24 03:10:05;;;;;;;22.20;18.20;;;19.30;1.00;;;;;;5129329;27;20185;-56
2021/07/24 03:12:30;;;;;;;20.13;17.57;;;19.20;1.00;;;;;;5130227;27;20236;-52
2021/07/24 03:14:56;;;;;;;22.60;17.30;;;19.30;1.00;;;;;;5132647;27;20470;-53
2021/07/24 03:17:22;;;;;;;20.07;16.87;;;19.30;1.00;;;;;;5131762;27;20173;-54
2021/07/24 03:19:47;;;;;;;17.97;16.07;;;19.30;1.00;;;;;;5133870;27;20212;-55
2021/07/24 03:22:13;;;;;;;17.13;15.23;;;19.40;1.00;;;;;;5131853;27;20205;-57
2021/07/24 03:24:38;;;;;;;18.37;16.47;;;19.40;1.00;;;;;;5127510;27;20194;-53
2021/07/24 03:27:04;;;;;;;18.20;16.33;;;19.40;1.00;;;;;;5128175;27;20534;-54
2021/07/24 03:29:30;;;;;;;17.17;15.17;;;;;;;;;;5131271;27;20189;-54
2021/07/24 03:31:56;;;;;;;19.77;17.43;;;19.30;1.00;;;;;;5133450;27;20182;-56
2021/07/24 03:34:21;;;;;;;21.27;18.53;;;19.30;1.00;;;;;;5134642;27;20443;-55
2021/07/24 03:36:47;;;;;;;17.17;15.17;;;19.30;1.00;;;;;;5133925;27;20595;-55
2021/07/24 03:39:12;;;;;;;18.43;16.53;;;19.30;1.00;;;;;;5134520;27;20201;-54
2021/07/24 03:41:38;;;;;;;18.13;16.23;;;19.30;1.00;;;;;;5130132;27;20250;-55
2021/07/24 03:44:04;;;;;;;20.10;16.67;;;19.30;1.00;;;;;;5132916;27;20192;-55
2021/07/24 03:46:29;;;;;;;22.13;18.60;;;19.30;1.00;;;;;;5132998;27;20291;-55
2021/07/24 03:48:55;;;;;;;18.93;16.67;;;19.40;1.00;;;;;;5133762;27;20474;-56
2021/07/24 03:51:21;;;;;;;20.37;18.20;;;19.50;1.00;;;;;;5129631;27;20212;-55
2021/07/24 03:53:47;;;;;;;19.67;17.40;;;19.60;1.00;;;;;;5132803;27;20604;-54
2021/07/24 03:56:17;;;;;;;20.77;17.00;;;19.50;1.00;;;;;;5129234;27;20534;-53
2021/07/24 03:58:44;;;;;;;18.10;16.20;;;19.40;1.00;;;;;;5133925;27;20435;-54
2021/07/24 04:01:11;;;;;;;17.87;16.00;;;19.40;1.00;;;;;;5131918;27;20438;-56
2021/07/24 04:03:36;;;;;;;17.60;15.77;;;19.40;1.00;;;;;;5132829;27;20439;-54
2021/07/24 04:06:03;;;;;;;19.03;17.03;;;19.40;1.00;;;;;;5130481;27;20446;-52
2021/07/24 04:08:32;;;;;;;18.00;15.70;;;19.50;1.00;;;;;;5132062;27;20186;-54
2021/07/24 04:10:59;;;;;;;18.20;16.37;;;19.60;1.00;;;;;;5129601;27;20716;-54
2021/07/24 04:13:25;;;;;;;20.87;15.80;;;19.60;1.00;;;;;;5132481;27;20446;-53
2021/07/24 04:15:50;;;;;;;18.17;16.27;;;19.70;1.00;;;;;;5110696;27;20446;-55
2021/07/24 04:18:16;;;;;;;18.30;16.40;;;19.80;1.00;;;;;;5116491;27;20293;-55
2021/07/24 04:20:42;;;;;;;17.00;15.20;;;19.80;1.00;;;;;;5131468;27;20669;-55
2021/07/24 04:23:08;;;;;;;16.80;15.07;;;19.80;1.00;;;;;;5132667;27;20211;-54
2021/07/24 04:25:34;;;;;;;17.43;15.50;;;19.90;1.00;;;;;;5132478;27;20478;-55
2021/07/24 04:27:59;;;;;;;16.80;15.00;;;19.80;1.00;;;;;;5130614;27;20431;-54
2021/07/24 04:30:25;;;;;;;16.50;14.40;;;19.90;1.00;;;;;;5133632;27;20264;-53
2021/07/24 04:32:51;;;;;;;17.57;15.07;;;19.90;1.00;;;;;;5126878;27;20193;-56
2021/07/24 04:35:17;;;;;;;16.47;14.60;;;20.00;1.00;;;;;;5132377;27;20182;-54
2021/07/24 04:37:42;;;;;;;15.13;13.53;;;20.10;1.00;;;;;;5111857;27;20525;-56
2021/07/24 04:40:09;;;;;;;16.43;14.17;;;20.20;1.00;;;;;;5129931;27;20217;-55
2021/07/24 04:42:34;;;;;;;16.40;14.07;;;20.30;1.00;;;;;;5133362;27;20174;-53
2021/07/24 04:45:00;;;;;;;16.07;14.27;;;20.50;1.00;;;;;;5112363;27;20453;-54
2021/07/24 04:47:25;;;;;;;16.73;14.17;;;20.60;1.00;;;;;;5140168;27;20526;-53
2021/07/24 04:49:53;;;;;;;15.30;12.63;;;20.80;1.00;;;;;;5135202;27;20185;-55
2021/07/24 04:52:20;;;;;;;16.27;14.57;;;21.00;1.00;;;;;;5129902;27;20679;-52
2021/07/24 04:54:47;;;;;;;14.87;12.53;;;21.20;1.00;;;;;;5131382;27;20462;-54
2021/07/24 04:57:15;;;;;;;15.90;14.07;;;21.40;1.00;;;;;;5132580;27;20495;-55
2021/07/24 04:59:47;;;;;;;14.70;13.30;;;21.60;1.00;;;;;;5131415;27;20458;-55
2021/07/24 05:02:18;;;;;;;13.87;12.47;;;21.70;1.00;;;;;;5132330;27;20455;-54
2021/07/24 05:04:44;;;;;;;15.80;13.57;;;21.90;1.00;;;;;;5129770;27;20468;-52
2021/07/24 05:07:14;;;;;;;13.50;12.10;;;21.90;1.00;;;;;;5131506;27;20433;-53
2021/07/24 05:09:43;;;;;;;14.67;13.20;;;22.10;1.00;;;;;;5126900;27;20539;-54
2021/07/24 05:12:09;;;;;;;13.77;12.30;;;22.10;1.00;;;;;;5126826;27;20488;-54
2021/07/24 05:14:34;;;;;;;15.63;13.13;;;22.10;1.00;;;;;;5132082;27;20435;-53
2021/07/24 05:17:11;;;;;;;14.23;12.93;;;22.20;1.00;;;;;;5129094;27;20515;-56
2021/07/24 05:19:41;;;;;;;15.00;13.37;;;22.10;1.00;;;;;;5132499;27;20562;-52
2021/07/24 05:22:08;;;;;;;14.87;13.37;;;22.20;1.00;;;;;;5126366;27;20451;-54
2021/07/24 05:24:35;;;;;;;15.10;13.50;;;22.30;1.00;;;;;;5132599;27;20522;-56
2021/07/24 05:27:01;;;;;;;13.67;12.13;;;22.30;1.00;;;;;;5130407;27;20479;-55
2021/07/24 05:29:27;;;;;;;15.17;12.57;;;22.30;1.00;;;;;;5129969;27;20439;-52
2021/07/24 05:31:53;;;;;;;14.03;12.73;;;22.40;1.00;;;;;;5111981;27;20477;-54
2021/07/24 05:34:19;;;;;;;13.40;11.87;;;22.40;1.00;;;;;;5126741;27;20523;-55
2021/07/24 05:36:45;;;;;;;13.93;12.43;;;22.50;1.00;;;;;;5131564;27;20788;-54
2021/07/24 05:39:11;;;;;;;14.03;12.63;;;22.60;1.00;;;;;;5126615;27;20471;-53
2021/07/24 05:41:36;;;;;;;17.57;15.77;;;22.70;1.00;;;;;;5122970;27;20185;-52
2021/07/24 05:44:02;;;;;;;13.00;11.57;;;22.70;1.00;;;;;;5128376;27;20181;-54
2021/07/24 05:46:28;;;;;;;12.37;11.03;;;22.70;1.00;;;;;;5129386;27;20273;-56
2021/07/24 05:48:54;;;;;;;13.30;11.90;;;22.70;1.00;;;;;;5128589;27;20173;-54
2021/07/24 05:51:19;;;;;;;13.87;12.57;;;22.80;1.00;;;;;;5130840;27;20224;-52
2021/07/24 05:53:45;;;;;;;14.50;12.80;;;22.70;1.00;;;;;;5127964;27;20534;-54
2021/07/24 05:56:10;;;;;;;14.13;12.37;;;22.80;1.00;;;;;;5131484;27;20547;-55
2021/07/24 05:58:36;;;;;;;13.57;12.30;;;23.10;1.00;;;;;;5130601;27;20522;-54
2021/07/24 06:01:01;;;;;;;12.73;11.53;;;23.30;1.00;;;;;;5131166;27;20181;-54
2021/07/24 06:03:27;;;;;;;14.00;12.60;;;23.40;1.00;;;;;;5127886;27;20217;-56
2021/07/24 06:05:52;;;;;;;17.23;12.27;;;23.50;1.00;;;;;;5131396;27;20189;-52
2021/07/24 06:08:18;;;;;;;14.10;12.70;;;23.40;1.00;;;;;;5124421;27;20194;-53
2021/07/24 06:10:44;;;;;;;13.97;12.47;;;23.40;1.00;;;;;;5125086;27;20215;-55
2021/07/24 06:13:11;;;;;;;13.60;12.20;;;23.60;1.00;;;;;;5131182;27;20551;-54
2021/07/24 06:15:42;;;;;;;13.37;11.97;;;23.60;1.00;;;;;;5132204;27;20188;-57
2021/07/24 06:18:08;;;;;;;14.10;12.70;;;23.60;1.00;;;;;;5112279;27;20442;-55
2021/07/24 06:20:37;;;;;;;13.60;12.33;;;23.60;1.00;;;;;;5112030;27;20470;-56
2021/07/24 06:23:03;;;;;;;14.43;13.00;;;23.80;1.00;;;;;;5127562;27;20169;-55
2021/07/24 06:25:29;;;;;;;14.70;13.20;;;23.90;1.00;;;;;;5128827;27;20442;-56
2021/07/24 06:27:54;;;;;;;13.33;12.03;;;23.90;1.00;;;;;;5129611;27;20721;-55
2021/07/24 06:30:20;;;;;;;13.23;11.83;;;24.10;1.00;;;;;;5108732;28;20186;-56
2021/07/24 06:32:45;;;;;;;12.60;11.30;;;24.10;1.00;;;;;;5110425;27;20193;-56
2021/07/24 06:35:11;;;;;;;13.00;11.80;;;24.20;1.00;;;;;;5127677;27;20591;-54
2021/07/24 06:37:36;;;;;;;14.80;11.13;;;24.30;1.00;;;;;;5129357;27;20204;-55
2021/07/24 06:40:04;;;;;;;12.80;11.50;;;24.50;1.00;;;;;;5108209;27;20205;-54
2021/07/24 06:42:29;;;;;;;13.70;11.93;;;24.70;1.00;;;;;;5126010;27;20185;-56
2021/07/24 06:44:55;;;;;;;12.23;11.03;;;24.80;1.00;;;;;;5129132;27;20453;-57
2021/07/24 06:47:21;;;;;;;12.90;11.10;;;25.00;1.00;;;;;;5132925;27;20190;-53
2021/07/24 06:49:47;;;;;;;13.83;11.10;;;24.90;1.00;;;;;;5134020;27;20196;-57
2021/07/24 06:52:13;;;;;;;14.63;11.43;;;24.80;1.00;;;;;;5129573;27;21026;-55
2021/07/24 06:54:38;;;;;;;13.90;10.57;;;25.00;1.00;;;;;;5149930;27;20191;-56
2021/07/24 06:57:04;;;;;;;11.70;10.10;;;25.00;1.00;;;;;;5135289;27;20658;-56
2021/07/24 06:59:29;;;;;;;11.70;10.60;;;25.10;1.00;;;;;;5130549;27;20216;-55
2021/07/24 07:01:59;;;;;;;12.13;10.40;;;25.10;1.00;;;;;;5136348;27;20210;-54
2021/07/24 07:04:27;;;;;;;12.70;11.40;;;25.20;1.00;;;;;;5135025;27;20178;-53
2021/07/24 07:06:53;;;;;;;11.97;10.77;;;25.30;1.00;;;;;;5133512;27;20431;-54
2021/07/24 07:09:18;;;;;;;11.43;10.30;;;25.40;1.00;;;;;;5132248;27;20556;-54
2021/07/24 07:11:44;;;;;;;11.80;10.70;;;25.50;1.00;;;;;;5132034;27;20196;-54
2021/07/24 07:14:10;;;;;;;15.90;11.90;;;25.60;1.00;;;;;;5131697;27;20242;-52
2021/07/24 07:16:35;;;;;;;13.37;11.40;;;25.70;1.00;;;;;;5134004;27;20482;-54
2021/07/24 07:19:02;;;;;;;11.73;10.00;;;25.80;1.00;;;;;;5133094;27;20198;-53
2021/07/24 07:21:27;;;;;;;12.03;10.83;;;25.80;1.00;;;;;;5131375;27;20234;-54
2021/07/24 07:23:53;;;;;;;11.90;10.80;;;25.80;1.00;;;;;;5114207;27;20511;-55
2021/07/24 07:26:28;;;;;;;12.07;10.90;;;25.70;1.00;;;;;;5134368;27;20184;-56
2021/07/24 07:28:55;;;;;;;13.10;10.50;;;25.80;1.00;;;;;;5131044;27;20601;-53
2021/07/24 07:31:21;;;;;;;11.97;10.87;;;25.80;1.00;;;;;;5130554;27;20866;-53
2021/07/24 07:33:47;;;;;;;14.67;10.80;;;25.70;1.00;;;;;;5128542;27;20468;-55
2021/07/24 07:36:12;;;;;;;12.03;10.83;;;25.70;1.00;;;;;;5130744;27;20737;-52
2021/07/24 07:38:38;;;;;;;11.60;9.90;;;25.70;1.00;;;;;;5132682;27;20220;-53
2021/07/24 07:41:03;;;;;;;16.37;11.00;;;25.80;1.00;;;;;;5131273;27;20718;-53
2021/07/24 07:43:29;;;;;;;10.83;9.77;;;25.90;1.00;;;;;;5133840;27;20281;-53
2021/07/24 07:45:56;;;;;;;12.17;11.00;;;26.00;1.00;;;;;;5132967;27;20256;-52
2021/07/24 07:48:22;;;;;;;11.80;10.70;;;26.10;1.00;;;;;;5133494;27;20653;-53
2021/07/24 07:50:47;;;;;;;11.90;10.80;;;26.10;1.00;;;;;;5130348;27;20457;-53
2021/07/24 07:53:13;;;;;;;11.63;10.47;;;26.10;1.00;;;;;;5133208;27;20178;-54
2021/07/24 07:55:41;;;;;;;12.40;10.63;;;26.40;1.00;;;;;;5129775;27;20185;-55
2021/07/24 07:58:14;;;;;;;11.27;10.10;;;26.90;1.00;;;;;;5133203;27;20535;-54
2021/07/24 08:00:40;;;;;;;11.17;10.03;;;27.10;1.00;;;;;;5131825;27;21014;-55
2021/07/24 08:03:05;;;;;;;14.20;10.40;;;27.20;1.00;;;;;;5132016;27;20471;-55
2021/07/24 08:05:31;;;;;;;13.10;10.47;;;27.40;1.00;;;;;;5131847;27;20205;-52
2021/07/24 08:07:57;;;;;;;12.23;11.03;;;27.50;1.00;;;;;;5133012;27;20650;-53
2021/07/24 08:10:23;;;;;;;11.50;10.43;;;27.50;1.00;;;;;;5133327;27;20182;-54
2021/07/24 08:12:48;;;;;;;13.20;10.43;;;27.60;1.00;;;;;;5132555;27;20498;-55
2021/07/24 08:15:14;;;;;;;11.33;10.20;;;27.70;1.00;;;;;;5132246;27;20177;-55
2021/07/24 08:17:40;;;;;;;11.10;10.10;;;27.90;1.00;;;;;;5132887;27;20216;-53
2021/07/24 08:20:07;;;;;;;11.40;10.40;;;28.40;1.00;;;;;;5130982;27;20204;-55
2021/07/24 08:22:33;;;;;;;11.43;10.30;;;28.50;1.00;;;;;;5132628;27;20194;-53
2021/07/24 08:24:58;;;;;;;10.90;9.90;;;28.80;1.00;;;;;;5140350;27;20442;-56
2021/07/24 08:27:25;;;;;;;11.70;10.50;;;28.80;1.00;;;;;;5134660;27;20205;-54
2021/07/24 08:29:51;;;;;;;11.47;10.47;;;28.80;1.00;;;;;;5133467;27;20193;-55
2021/07/24 08:32:17;;;;;;;11.10;10.10;;;28.70;1.00;;;;;;5133181;27;20438;-55
2021/07/24 08:34:42;;;;;;;11.53;10.33;;;28.60;1.00;;;;;;5132629;27;20440;-55
2021/07/24 08:37:09;;;;;;;12.47;11.17;;;28.60;1.00;;;;;;5132960;27;20925;-55
2021/07/24 08:39:35;;;;;;;13.70;10.43;;;28.50;1.00;;;;;;5133478;27;20197;-54
2021/07/24 08:42:06;;;;;;;12.07;10.93;;;28.70;1.00;;;;;;5133122;27;20504;-53
2021/07/24 08:44:36;;;;;;;11.30;10.33;;;29.00;1.00;;;;;;5129996;27;20439;-54
2021/07/24 08:47:03;;;;;;;12.00;10.80;;;29.10;1.00;;;;;;5132482;27;20836;-52
2021/07/24 08:49:29;;;;;;;13.00;10.40;;;29.30;1.00;;;;;;5132307;27;20441;-53
2021/07/24 08:51:57;;;;;;;11.90;10.70;;;28.80;1.00;;;;;;5128058;27;20474;-54
2021/07/24 08:54:23;;;;;;;13.00;11.30;;;29.20;1.00;;;;;;5131868;27;20189;-54
2021/07/24 08:56:49;;;;;;;12.13;10.97;;;29.20;1.00;;;;;;5132894;27;20445;-54
2021/07/24 08:59:17;;;;;;;11.90;10.70;;;29.20;1.00;;;;;;5131348;27;20323;-55
2021/07/24 09:01:52;;;;;;;10.90;9.90;;;29.20;1.00;;;;;;5133761;27;20499;-53
2021/07/24 09:04:19;;;;;;;11.03;10.00;;;29.10;1.00;;;;;;5115605;27;20442;-54
2021/07/24 09:06:45;;;;;;;12.10;10.90;;;29.10;1.00;;;;;;5140661;27;20956;-53
2021/07/24 09:09:13;;;;;;;11.47;10.37;;;29.10;1.00;;;;;;5153028;27;20563;-53
2021/07/24 09:11:41;;;;;;;11.37;10.37;;;29.10;1.00;;;;;;5152917;27;20184;-54
2021/07/24 09:14:07;;;;;;;10.53;9.53;;;29.00;1.00;;;;;;5150721;27;20438;-53
2021/07/24 09:16:36;;;;;;;13.13;10.60;;;29.00;1.00;;;;;;5132160;27;20442;-53
2021/07/24 09:19:02;;;;;;;11.03;9.97;;;29.00;1.00;;;;;;5151241;27;20212;-53
2021/07/24 09:21:29;;;;;;;12.50;11.40;;;29.10;1.00;;;;;;5140849;27;20413;-55
2021/07/24 09:24:15;;;;;;;10.83;9.83;;;29.20;1.00;;;;;;5132116;27;20186;-55
2021/07/24 09:26:40;;;;;;;11.30;10.17;;;29.20;1.00;;;;;;5113112;27;20521;-54
2021/07/24 09:29:11;;;;;;;11.70;10.60;;;29.50;1.00;;;;;;5113613;27;20526;-53
2021/07/24 09:31:39;;;;;;;12.30;11.00;;;29.70;1.00;;;;;;5128112;27;20209;-55
2021/07/24 09:34:05;;;;;;;11.27;10.07;;;29.70;1.00;;;;;;5127120;27;21675;-54
2021/07/24 09:36:31;;;;;;;12.17;10.40;;;29.60;1.00;;;;;;5131552;27;20931;-55
2021/07/24 09:39:09;;;;;;;12.77;11.10;;;29.40;1.00;;;;;;5131875;27;20488;-53
2021/07/24 09:41:39;;;;;;;11.30;10.10;;;29.50;1.00;;;;;;5130142;27;20446;-52
2021/07/24 09:44:04;;;;;;;10.80;9.80;;;29.80;1.00;;;;;;5131222;27;20431;-54
2021/07/24 09:46:30;;;;;;;11.37;10.27;;;29.70;1.00;;;;;;5128954;27;20816;-54
2021/07/24 09:48:56;;;;;;;18.03;10.73;;;29.70;1.00;;;;;;5127192;27;20182;-53
2021/07/24 09:51:39;;;;;;;13.27;10.30;;;29.90;1.00;;;;;;5131676;27;20308;-54
2021/07/24 09:54:05;;;;;;;10.87;9.80;;;30.00;1.00;;;;;;5131039;27;20185;-54
2021/07/24 09:56:42;;;;;;;11.50;10.43;;;30.10;1.00;;;;;;5131445;27;20437;-54
2021/07/24 09:59:30;;;;;;;10.87;9.77;;;30.30;1.00;;;;;;5130588;27;20481;-53
2021/07/24 10:01:58;;;;;;;10.97;9.87;;;30.60;1.00;;;;;;5131345;27;20492;-52
2021/07/24 10:04:28;;;;;;;10.67;9.73;;;30.90;1.00;;;;;;5125498;27;20904;-54
2021/07/24 10:07:04;;;;;;;11.53;10.47;;;30.80;1.00;;;;;;5131482;27;20438;-54
2021/07/24 10:09:33;;;;;;;11.10;10.10;;;30.50;1.00;;;;;;5130897;27;20446;-52
2021/07/24 10:12:04;;;;;;;10.47;9.57;;;30.20;1.00;;;;;;5112483;27;20510;-54
2021/07/24 10:14:30;;;;;;;10.07;9.10;;;30.10;1.00;;;;;;5130773;27;20442;-55
2021/07/24 10:16:57;;;;;;;10.10;9.07;;;30.00;1.00;;;;;;5129402;27;21011;-54
2021/07/24 10:19:24;;;;;;;11.40;10.30;;;30.00;1.00;;;;;;5128563;27;20624;-54
2021/07/24 10:21:51;;;;;;;10.40;9.40;;;30.20;1.00;;;;;;5128199;27;20822;-53
2021/07/24 10:24:17;;;;;;;10.70;9.77;;;30.40;1.00;;;;;;5129868;27;20439;-53
2021/07/24 10:26:51;;;;;;;10.87;9.20;;;30.40;1.00;;;;;;5149003;27;20918;-53
2021/07/24 10:29:23;;;;;;;10.60;9.70;;;30.50;1.00;;;;;;5143656;27;20443;-53
2021/07/24 10:32:12;;;;;;;11.50;10.50;;;30.60;1.00;;;;;;5130868;27;20783;-53
2021/07/24 10:34:47;;;;;;;9.43;8.63;;;30.50;1.00;;;;;;5131972;27;20947;-54
2021/07/24 10:37:38;;;;;;;11.00;10.10;;;30.40;1.00;;;;;;5130400;27;20819;-55
2021/07/24 10:40:16;;;;;;;10.20;9.20;;;30.20;1.00;;;;;;5128143;27;20462;-55
2021/07/24 10:42:44;;;;;;;9.53;8.73;;;30.40;1.00;;;;;;5130555;27;20481;-54
2021/07/24 10:45:37;;;;;;;9.33;8.50;;;30.80;1.00;;;;;;5129569;27;20427;-55
2021/07/24 10:48:21;;;;;;;12.50;9.70;;;30.90;1.00;;;;;;5128853;27;20427;-55
2021/07/24 10:50:49;;;;;;;10.17;9.17;;;30.90;1.00;;;;;;5131069;27;20437;-56
2021/07/24 10:53:15;;;;;;;9.50;8.57;;;31.10;1.00;;;;;;5130038;27;20431;-54
2021/07/24 10:55:43;;;;;;;9.87;8.87;;;31.10;1.00;;;;;;5131012;27;20434;-53
2021/07/24 10:58:09;;;;;;;9.83;8.90;;;31.00;1.00;;;;;;5112432;27;20181;-55
2021/07/24 11:00:40;;;;;;;8.90;8.10;;;30.60;1.00;;;;;;5131029;27;20840;-54
2021/07/24 11:03:33;;;;;;;8.93;8.20;;;30.60;1.00;;;;;;5130114;27;20221;-53
2021/07/24 11:06:29;;;;;;;13.00;10.77;;;30.90;1.00;;;;;;5112737;27;20431;-53
2021/07/24 11:09:15;;;;;;;9.93;9.00;;;31.10;1.00;;;;;;5114455;27;20455;-54
2021/07/24 11:11:40;;;;;;;9.47;8.53;;;31.50;1.00;;;;;;5130194;27;20460;-53
2021/07/24 11:14:07;;;;;;;8.37;7.67;;;32.20;1.00;;;;;;5129834;27;20966;-54
2021/07/24 11:17:03;;;;;;;9.10;8.30;;;32.50;1.00;;;;;;5130190;27;20538;-55
2021/07/24 11:19:29;;;;;;;11.63;9.40;;;32.70;1.00;;;;;;5129073;27;20828;-54
2021/07/24 11:22:22;;;;;;;9.50;8.60;;;32.60;1.00;;;;;;5128710;27;20431;-55
2021/07/24 11:24:50;;;;;;;10.13;9.13;;;32.60;1.00;;;;;;5130308;27;20665;-54
2021/07/24 11:27:26;;;;;;;9.77;8.80;;;32.90;1.00;;;;;;5112173;27;20442;-54
2021/07/24 11:30:08;;;;;;;9.57;8.57;;;33.00;1.00;;;;;;5133141;27;20458;-54
2021/07/24 11:32:42;;;;;;;9.00;8.30;;;33.20;1.00;;;;;;5127491;27;20442;-55
2021/07/24 11:35:11;;;;;;;11.03;10.00;;;33.40;1.00;;;;;;5133480;27;20446;-55
2021/07/24 11:37:38;;;;;;;10.10;9.10;;;33.50;1.00;;;;;;5134480;27;20450;-55
2021/07/24 11:40:05;;;;;;;8.97;8.27;;;33.50;1.00;;;;;;5132785;27;20455;-55
2021/07/24 11:42:30;;;;;;;9.77;8.90;;;33.40;1.00;;;;;;5133998;27;20443;-55
2021/07/24 11:44:56;;;;;;;9.70;8.73;;;33.30;1.00;;;;;;5132926;27;20492;-54
2021/07/24 11:47:21;;;;;;;9.40;8.60;;;33.10;1.00;;;;;;5130368;27;20190;-55
2021/07/24 11:49:47;;;;;;;9.47;8.60;;;32.90;1.00;;;;;;5132811;27;20185;-54
2021/07/24 11:52:12;;;;;;;10.07;9.10;;;33.20;1.00;;;;;;5133543;27;20597;-55
2021/07/24 11:54:38;;;;;;;10.33;9.43;;;33.60;1.00;;;;;;5134441;27;20217;-54
2021/07/24 11:57:05;;;;;;;10.50;8.60;;;34.00;1.00;;;;;;5133608;27;20269;-54
2021/07/24 11:59:32;;;;;;;9.60;8.80;;;34.00;1.00;;;;;;5130953;27;20716;-53
2021/07/24 12:01:59;;;;;;;10.67;9.40;;;33.80;1.00;;;;;;5132685;27;20530;-55
2021/07/24 12:04:25;;;;;;;10.20;9.17;;;33.40;1.00;;;;;;5133133;27;20431;-54
2021/07/24 12:07:02;;;;;;;9.83;8.43;;;33.00;1.00;;;;;;5126871;27;20447;-54
2021/07/24 12:09:30;;;;;;;10.87;9.90;;;32.70;1.00;;;;;;5132823;27;20446;-54
2021/07/24 12:11:58;;;;;;;10.00;9.00;;;32.60;1.00;;;;;;5132136;27;20479;-56
2021/07/24 12:14:26;;;;;;;9.70;8.80;;;32.60;1.00;;;;;;5131401;27;20425;-54
2021/07/24 12:17:04;;;;;;;10.70;9.60;;;32.60;1.00;;;;;;5133847;27;20602;-54
2021/07/24 12:19:40;;;;;;;9.80;8.80;;;32.40;1.00;;;;;;5133570;27;20515;-54
2021/07/24 12:22:20;;;;;;;10.17;9.10;;;32.40;1.00;;;;;;5133486;27;20450;-55
2021/07/24 12:24:48;;;;;;;9.90;9.00;;;32.80;1.00;;;;;;5132369;27;20546;-55
2021/07/24 12:27:16;;;;;;;9.80;8.90;;;32.80;1.00;;;;;;5130834;27;20431;-55
2021/07/24 12:29:53;;;;;;;9.87;9.00;;;32.70;1.00;;;;;;5131933;27;20438;-54
2021/07/24 12:32:21;;;;;;;10.20;9.20;;;32.60;1.00;;;;;;5133680;27;20918;-53
2021/07/24 12:34:47;;;;;;;11.23;10.20;;;32.70;1.00;;;;;;5131063;27;20898;-54
2021/07/24 12:37:33;;;;;;;9.90;9.03;;;32.80;1.00;;;;;;5133266;27;20830;-56
2021/07/24 12:40:19;;;;;;;9.60;8.63;;;32.80;1.00;;;;;;5132427;27;20491;-55
2021/07/24 12:42:45;;;;;;;9.23;8.43;;;33.00;1.00;;;;;;5133124;27;20458;-55
2021/07/24 12:45:25;;;;;;;9.50;8.67;;;33.10;1.00;;;;;;5115121;27;21005;-56
2021/07/24 12:47:52;;;;;;;10.67;9.77;;;33.30;1.00;;;;;;5134369;27;20492;-55
2021/07/24 12:50:18;;;;;;;10.37;9.27;;;33.40;1.00;;;;;;5113887;27;20955;-55